createdAt,value
2019-04-28T00:02:10.945Z,1.60
2019-04-28T00:07:15.719Z,0.87
2019-04-28T00:12:21.377Z,0.87
2019-04-28T00:17:26.644Z,2.40
2019-04-28T00:22:38.224Z,2.80
2019-04-28T00:27:42.826Z,1.13
2019-04-28T00:32:48.072Z,2.27
2019-04-28T00:37:52.674Z,1.77
2019-04-28T00:42:57.874Z,0.73
2019-04-28T00:48:02.479Z,2.90
2019-04-28T00:53:07.589Z,0.93
2019-04-28T00:58:12.114Z,1.17
2019-04-28T01:03:17.125Z,0.70
2019-04-28T01:08:21.781Z,0.77
2019-04-28T01:13:26.710Z,1.27
2019-04-28T01:18:37.263Z,0.90
2019-04-28T01:23:42.179Z,0.63
2019-04-28T01:28:46.776Z,0.77
2019-04-28T01:34:10.513Z,0.80
2019-04-28T01:39:15.177Z,0.50
2019-04-28T01:44:20.650Z,1.37
2019-04-28T01:49:25.354Z,1.93
2019-04-28T01:54:30.545Z,0.87
2019-04-28T01:59:35.141Z,1.83
2019-04-28T02:04:40.483Z,0.67
2019-04-28T02:09:45.212Z,0.93
2019-04-28T02:14:50.005Z,0.93
2019-04-28T02:19:56.068Z,0.60
2019-04-28T02:25:01.481Z,1.17
2019-04-28T02:30:10.990Z,0.57
2019-04-28T02:35:14.579Z,0.80
2019-04-28T02:40:20.699Z,1.27
2019-04-28T02:45:26.126Z,1.97
2019-04-28T02:50:46.669Z,3.80
2019-04-28T02:55:51.633Z,0.90
2019-04-28T03:01:09.431Z,0.60
2019-04-28T03:06:02.445Z,0.50
2019-04-28T03:11:06.990Z,0.53
2019-04-28T03:16:12.189Z,2.40
2019-04-28T03:21:16.807Z,1.80
2019-04-28T03:26:32.262Z,0.77
2019-04-28T03:32:14.876Z,1.53
2019-04-28T03:36:54.104Z,1.43
2019-04-28T03:42:00.144Z,1.40
2019-04-28T03:47:05.667Z,1.20
2019-04-28T03:52:10.893Z,2.00
2019-04-28T03:57:15.646Z,5.27
2019-04-28T04:02:23.053Z,1.17
2019-04-28T04:07:27.459Z,1.70
2019-04-28T04:12:46.352Z,0.93
2019-04-28T04:18:03.710Z,2.63
2019-04-28T04:23:11.046Z,1.07
2019-04-28T04:28:15.353Z,2.10
2019-04-28T04:33:20.791Z,0.80
2019-04-28T04:38:26.699Z,1.20
2019-04-28T04:43:31.420Z,0.77
2019-04-28T04:48:36.180Z,0.83
2019-04-28T04:53:40.881Z,1.00
2019-04-28T04:58:46.316Z,0.93
2019-04-28T05:03:52.674Z,1.30
2019-04-28T05:08:59.821Z,0.90
2019-04-28T05:14:07.220Z,0.93
2019-04-28T05:19:11.017Z,0.90
2019-04-28T05:24:46.319Z,0.67
2019-04-28T05:29:51.311Z,1.77
2019-04-28T05:34:56.193Z,1.03
2019-04-28T05:40:00.984Z,1.43
2019-04-28T05:45:06.797Z,0.73
2019-04-28T05:50:17.400Z,1.30
2019-04-28T05:55:26.509Z,0.70
2019-04-28T06:00:50.294Z,0.83
2019-04-28T06:05:57.056Z,1.23
2019-04-28T06:11:22.029Z,0.80
2019-04-28T06:16:30.237Z,0.83
2019-04-28T06:21:34.293Z,0.90
2019-04-28T06:26:39.854Z,1.93
2019-04-28T06:31:44.677Z,0.60
2019-04-28T06:36:49.310Z,1.17
2019-04-28T06:41:53.982Z,0.90
2019-04-28T06:47:01.235Z,1.10
2019-04-28T06:52:05.986Z,1.10
2019-04-28T06:57:11.944Z,0.60
2019-04-28T07:02:16.589Z,0.80
2019-04-28T07:07:24.192Z,0.80
2019-04-28T07:12:28.753Z,0.93
2019-04-28T07:17:33.347Z,0.93
2019-04-28T07:22:38.078Z,0.57
2019-04-28T07:27:44.276Z,1.03
2019-04-28T07:32:48.930Z,5.73
2019-04-28T07:37:54.475Z,1.00
2019-04-28T07:42:59.065Z,2.03
2019-04-28T07:48:04.211Z,1.23
2019-04-28T07:53:19.854Z,0.60
2019-04-28T07:58:25.928Z,1.47
2019-04-28T08:03:30.553Z,1.47
2019-04-28T08:08:35.135Z,2.63
2019-04-28T08:13:39.702Z,1.93
2019-04-28T08:18:44.434Z,1.20
2019-04-28T08:23:49.252Z,1.83
2019-04-28T08:28:54.381Z,0.97
2019-04-28T08:34:04.520Z,1.17
2019-04-28T08:39:09.820Z,1.07
2019-04-28T08:44:14.515Z,0.70
2019-04-28T08:49:19.674Z,1.27
2019-04-28T08:54:24.225Z,1.70
2019-04-28T08:59:29.343Z,0.93
2019-04-28T09:04:34.122Z,1.77
2019-04-28T09:09:38.869Z,2.50
2019-04-28T09:14:43.501Z,1.27
2019-04-28T09:19:48.765Z,1.10
2019-04-28T09:24:53.334Z,1.10
2019-04-28T09:29:58.847Z,2.30
2019-04-28T09:35:04.139Z,2.80
2019-04-28T09:40:12.625Z,3.00
2019-04-28T09:45:20.067Z,4.00
2019-04-28T09:50:25.305Z,1.30
2019-04-28T09:55:29.844Z,2.87
2019-04-28T10:00:37.053Z,5.07
2019-04-28T10:05:41.638Z,5.40
2019-04-28T10:10:46.234Z,2.53
2019-04-28T10:15:51.967Z,7.00
2019-04-28T10:20:58.322Z,8.03
2019-04-28T10:26:02.906Z,8.53
2019-04-28T10:31:08.445Z,5.00
2019-04-28T10:36:14.625Z,9.17
2019-04-28T10:41:39.139Z,4.90
2019-04-28T10:46:43.768Z,10.10
2019-04-28T10:51:58.824Z,4.23
2019-04-28T10:56:54.610Z,7.60
2019-04-28T11:02:00.061Z,7.40
2019-04-28T11:07:04.690Z,4.40
2019-04-28T11:12:14.606Z,5.50
2019-04-28T11:17:19.461Z,7.13
2019-04-28T11:22:26.733Z,8.97
2019-04-28T11:27:31.391Z,8.17
2019-04-28T11:32:38.120Z,6.57
2019-04-28T11:37:42.728Z,5.27
2019-04-28T11:42:48.471Z,6.57
2019-04-28T11:47:53.099Z,9.17
2019-04-28T11:52:58.315Z,6.03
2019-04-28T11:58:03.250Z,7.37
2019-04-28T12:03:08.296Z,7.53
2019-04-28T12:08:12.886Z,7.90
2019-04-28T12:13:30.582Z,7.50
2019-04-28T12:19:00.374Z,8.50
2019-04-28T12:24:05.684Z,6.10
2019-04-28T12:29:10.262Z,5.67
2019-04-28T12:34:15.201Z,6.47
2019-04-28T12:39:19.791Z,8.10
2019-04-28T12:44:24.409Z,7.33
2019-04-28T12:49:33.880Z,5.30
2019-04-28T12:54:39.695Z,3.90
2019-04-28T12:59:49.307Z,6.00
2019-04-28T13:05:00.389Z,11.10
2019-04-28T13:10:05.236Z,5.73
2019-04-28T13:15:09.975Z,8.03
2019-04-28T13:20:14.984Z,8.60
2019-04-28T13:25:19.915Z,10.20
2019-04-28T13:30:24.879Z,7.93
2019-04-28T13:35:29.702Z,5.23
2019-04-28T13:40:36.082Z,3.50
2019-04-28T13:45:40.963Z,6.70
2019-04-28T13:50:48.826Z,4.90
2019-04-28T13:56:10.684Z,3.97
2019-04-28T14:01:38.681Z,5.93
2019-04-28T14:06:46.588Z,7.77
2019-04-28T14:11:51.726Z,3.33
2019-04-28T14:16:56.487Z,6.57
2019-04-28T14:22:02.681Z,3.90
2019-04-28T14:27:08.716Z,2.70
2019-04-28T14:32:14.450Z,7.57
2019-04-28T14:37:19.059Z,6.70
2019-04-28T14:42:25.113Z,7.30
2019-04-28T14:47:29.725Z,5.20
2019-04-28T14:52:35.589Z,5.30
2019-04-28T14:57:41.080Z,6.63
2019-04-28T15:02:55.512Z,5.57
2019-04-28T15:08:14.275Z,7.50
2019-04-28T15:13:19.719Z,4.97
2019-04-28T15:18:24.313Z,4.17
2019-04-28T15:23:30.532Z,9.70
2019-04-28T15:28:35.459Z,3.20
2019-04-28T15:33:41.831Z,3.00
2019-04-28T15:38:46.395Z,6.43
2019-04-28T15:43:53.006Z,3.70
2019-04-28T15:48:57.698Z,3.30
2019-04-28T15:54:04.085Z,5.07
2019-04-28T15:59:09.586Z,8.07
2019-04-28T16:04:18.305Z,4.10
2019-04-28T16:09:22.423Z,4.37
2019-04-28T16:14:26.973Z,5.23
2019-04-28T16:19:31.634Z,3.10
2019-04-28T16:24:37.817Z,5.70
2019-04-28T16:29:42.523Z,4.47
2019-04-28T16:34:48.410Z,8.60
2019-04-28T16:39:52.945Z,5.30
2019-04-28T16:44:58.824Z,5.90
2019-04-28T16:50:04.517Z,2.97
2019-04-28T16:55:21.812Z,5.33
2019-04-28T17:00:41.928Z,5.10
2019-04-28T17:05:46.746Z,4.00
2019-04-28T17:10:51.818Z,5.70
2019-04-28T17:15:57.842Z,6.10
2019-04-28T17:21:02.389Z,6.13
2019-04-28T17:26:11.280Z,5.27
2019-04-28T17:31:15.288Z,5.63
2019-04-28T17:36:21.535Z,5.80
2019-04-28T17:41:26.374Z,2.73
2019-04-28T17:46:32.260Z,5.43
2019-04-28T17:51:38.138Z,2.67
2019-04-28T17:56:43.013Z,3.30
2019-04-28T18:02:05.476Z,8.00
2019-04-28T18:07:25.158Z,5.10
2019-04-28T18:12:29.782Z,5.10
2019-04-28T18:17:59.662Z,2.00
2019-04-28T18:23:13.705Z,2.70
2019-04-28T18:28:18.368Z,4.77
2019-04-28T18:33:52.596Z,3.70
2019-04-28T18:39:04.292Z,3.67
2019-04-28T18:44:16.368Z,3.00
2019-04-28T18:49:21.073Z,3.47
2019-04-28T18:54:27.385Z,5.07
2019-04-28T18:59:32.913Z,6.43
2019-04-28T19:04:40.385Z,2.43
2019-04-28T19:09:53.773Z,2.23
2019-04-28T19:15:17.779Z,3.73
2019-04-28T19:20:22.412Z,5.30
2019-04-28T19:25:28.325Z,4.40
2019-04-28T19:30:33.031Z,4.07
2019-04-28T19:35:38.720Z,4.53
2019-04-28T19:40:45.007Z,7.80
2019-04-28T19:45:52.565Z,4.00
2019-04-28T19:50:57.111Z,3.70
2019-04-28T19:56:09.335Z,2.60
2019-04-28T20:01:19.078Z,4.20
2019-04-28T20:06:25.036Z,4.00
2019-04-28T20:11:29.862Z,5.20
2019-04-28T20:16:34.561Z,2.63
2019-04-28T20:21:39.217Z,1.90
2019-04-28T20:26:43.927Z,2.37
2019-04-28T20:31:48.490Z,1.67
2019-04-28T20:37:01.630Z,3.10
2019-04-28T20:42:25.344Z,3.70
2019-04-28T20:47:32.121Z,1.53
2019-04-28T20:52:36.820Z,3.03
2019-04-28T20:57:42.497Z,5.00
2019-04-28T21:02:47.026Z,4.23
2019-04-28T21:07:52.507Z,1.53
2019-04-28T21:12:57.127Z,1.60
2019-04-28T21:18:02.093Z,4.33
2019-04-28T21:23:06.651Z,3.67
2019-04-28T21:28:14.433Z,1.87
2019-04-28T21:33:19.002Z,5.77
2019-04-28T21:38:24.752Z,2.27
2019-04-28T21:43:34.777Z,1.30
2019-04-28T21:48:46.123Z,5.57
2019-04-28T21:53:50.688Z,7.00
2019-04-28T21:58:56.521Z,1.87
2019-04-28T22:04:01.863Z,3.13
2019-04-28T22:09:06.557Z,2.30
2019-04-28T22:14:12.736Z,2.13
2019-04-28T22:19:18.379Z,3.77
2019-04-28T22:24:32.188Z,1.90
2019-04-28T22:29:36.724Z,2.33
2019-04-28T22:34:41.702Z,4.23
2019-04-28T22:39:47.136Z,3.93
2019-04-28T22:44:52.352Z,2.47
2019-04-28T22:49:56.910Z,3.13
2019-04-28T22:55:16.247Z,2.13
2019-04-28T23:00:49.162Z,1.87
2019-04-28T23:05:53.777Z,2.27
2019-04-28T23:10:58.317Z,1.90
2019-04-28T23:16:04.009Z,3.30
2019-04-28T23:21:19.668Z,1.67
2019-04-28T23:26:24.617Z,1.27
2019-04-28T23:31:29.301Z,1.20
2019-04-28T23:36:33.909Z,4.27
2019-04-28T23:41:50.874Z,1.40
2019-04-28T23:46:59.298Z,2.30
2019-04-28T23:52:27.576Z,1.33
2019-04-28T23:57:32.113Z,1.53
